createdAt,value
2023-09-12T00:01:13.690Z,2.90
2023-09-12T00:03:41.496Z,2.73
2023-09-12T00:06:08.945Z,2.83
2023-09-12T00:08:36.326Z,2.90
2023-09-12T00:11:07.702Z,3.33
2023-09-12T00:13:35.156Z,3.40
2023-09-12T00:16:03.401Z,3.00
2023-09-12T00:18:31.297Z,2.85
2023-09-12T00:21:02.199Z,3.00
2023-09-12T00:23:29.894Z,2.80
2023-09-12T00:25:58.548Z,2.80
2023-09-12T00:28:26.097Z,2.50
2023-09-12T00:30:54.103Z,2.80
2023-09-12T00:33:22.033Z,2.40
2023-09-12T00:35:49.505Z,2.80
2023-09-12T00:38:16.822Z,2.70
2023-09-12T00:40:44.464Z,3.33
2023-09-12T00:43:12.068Z,3.10
2023-09-12T00:45:39.819Z,2.70
2023-09-12T00:48:09.166Z,2.57
2023-09-12T00:50:37.924Z,2.58
2023-09-12T00:53:05.776Z,2.62
2023-09-12T00:55:36.224Z,2.92
2023-09-12T00:58:04.102Z,3.77
2023-09-12T01:00:31.873Z,2.53
2023-09-12T01:02:59.851Z,3.00
2023-09-12T01:05:28.450Z,3.47
2023-09-12T01:07:57.038Z,2.65
2023-09-12T01:10:24.919Z,3.15
2023-09-12T01:12:53.423Z,3.07
2023-09-12T01:17:50.851Z,2.83
2023-09-12T01:20:35.441Z,2.83
2023-09-12T01:23:41.889Z,3.20
2023-09-12T01:26:12.227Z,2.87
2023-09-12T01:28:44.333Z,3.53
2023-09-12T01:31:14.466Z,2.90
2023-09-12T01:33:42.344Z,3.47
2023-09-12T01:36:11.714Z,3.80
2023-09-12T01:38:39.401Z,4.23
2023-09-12T01:41:08.099Z,3.47
2023-09-12T01:43:37.690Z,3.80
2023-09-12T01:46:05.259Z,3.57
2023-09-12T01:48:35.979Z,3.23
2023-09-12T01:51:05.544Z,3.70
2023-09-12T01:53:35.664Z,3.20
2023-09-12T01:56:03.319Z,2.80
2023-09-12T01:58:32.744Z,2.83
2023-09-12T02:01:00.840Z,3.00
2023-09-12T02:03:28.760Z,3.00
2023-09-12T02:05:56.212Z,3.13
2023-09-12T02:08:23.653Z,2.97
2023-09-12T02:10:51.412Z,3.07
2023-09-12T02:13:18.983Z,2.90
2023-09-12T02:15:46.562Z,2.47
2023-09-12T02:18:14.526Z,2.40
2023-09-12T02:20:47.051Z,2.93
2023-09-12T02:23:16.457Z,2.90
2023-09-12T02:25:44.244Z,2.77
2023-09-12T02:28:11.726Z,2.80
2023-09-12T02:30:42.148Z,3.43
2023-09-12T02:33:10.730Z,3.20
2023-09-12T02:35:38.205Z,3.63
2023-09-12T02:38:05.599Z,3.10
2023-09-12T02:40:33.434Z,3.10
2023-09-12T02:43:00.899Z,3.60
2023-09-12T02:45:28.626Z,4.03
2023-09-12T02:47:56.601Z,3.60
2023-09-12T02:50:24.146Z,2.93
2023-09-12T02:52:51.671Z,3.20
2023-09-12T02:55:19.589Z,2.87
2023-09-12T02:57:48.302Z,3.10
2023-09-12T03:00:15.942Z,3.42
2023-09-12T03:02:43.863Z,3.30
2023-09-12T03:05:12.162Z,3.35
2023-09-12T03:07:39.482Z,3.13
2023-09-12T03:10:07.686Z,2.70
2023-09-12T03:12:38.320Z,3.00
2023-09-12T03:15:08.945Z,3.40
2023-09-12T03:17:38.503Z,3.10
2023-09-12T03:20:09.574Z,3.13
2023-09-12T03:22:40.135Z,2.53
2023-09-12T03:25:08.296Z,3.50
2023-09-12T03:27:35.921Z,3.57
2023-09-12T03:30:05.276Z,2.53
2023-09-12T03:35:00.662Z,3.33
2023-09-12T03:37:29.834Z,2.73
2023-09-12T03:39:58.133Z,3.30
2023-09-12T03:42:31.983Z,3.20
2023-09-12T03:45:06.947Z,3.10
2023-09-12T03:47:34.439Z,3.03
2023-09-12T03:50:02.101Z,3.83
2023-09-12T03:52:30.108Z,3.63
2023-09-12T03:54:58.904Z,3.27
2023-09-12T03:57:29.122Z,3.73
2023-09-12T03:59:57.140Z,3.60
2023-09-12T04:02:24.868Z,3.30
2023-09-12T04:04:53.364Z,3.50
2023-09-12T04:07:20.982Z,3.10
2023-09-12T04:09:48.469Z,2.93
2023-09-12T04:12:16.274Z,3.50
2023-09-12T04:14:43.962Z,3.50
2023-09-12T04:17:11.547Z,3.20
2023-09-12T04:19:39.258Z,3.63
2023-09-12T04:22:07.069Z,2.70
2023-09-12T04:24:34.748Z,3.23
2023-09-12T04:27:02.730Z,3.30
2023-09-12T04:29:30.488Z,4.17
2023-09-12T04:32:00.940Z,3.33
2023-09-12T04:34:29.126Z,3.20
2023-09-12T04:36:56.623Z,3.23
2023-09-12T04:39:24.522Z,2.90
2023-09-12T04:41:52.357Z,2.70
2023-09-12T04:44:19.774Z,3.13
2023-09-12T04:46:47.832Z,4.20
2023-09-12T04:49:15.938Z,3.15
2023-09-12T04:51:44.234Z,2.97
2023-09-12T04:54:11.920Z,3.65
2023-09-12T04:56:39.703Z,3.53
2023-09-12T04:59:08.064Z,3.07
2023-09-12T05:01:35.684Z,3.12
2023-09-12T05:04:04.535Z,3.27
2023-09-12T05:06:35.642Z,3.10
2023-09-12T05:09:04.489Z,3.30
2023-09-12T05:11:32.174Z,3.03
2023-09-12T05:14:01.173Z,4.10
2023-09-12T05:18:56.776Z,3.10
2023-09-12T05:21:24.750Z,4.50
2023-09-12T05:23:52.787Z,4.23
2023-09-12T05:26:23.286Z,3.23
2023-09-12T05:28:51.657Z,3.63
2023-09-12T05:31:20.223Z,3.47
2023-09-12T05:33:48.382Z,3.47
2023-09-12T05:36:16.055Z,3.23
2023-09-12T05:38:44.163Z,3.77
2023-09-12T05:41:11.866Z,3.27
2023-09-12T05:43:39.245Z,2.83
2023-09-12T05:46:07.046Z,2.90
2023-09-12T05:48:34.641Z,3.17
2023-09-12T05:51:02.191Z,2.93
2023-09-12T05:53:31.824Z,3.40
2023-09-12T05:55:59.344Z,3.47
2023-09-12T05:58:27.073Z,3.10
2023-09-12T06:00:54.962Z,3.50
2023-09-12T06:03:24.092Z,2.90
2023-09-12T06:05:52.322Z,3.10
2023-09-12T06:08:19.792Z,3.47
2023-09-12T06:10:47.676Z,3.03
2023-09-12T06:13:15.082Z,3.50
2023-09-12T06:15:43.035Z,3.53
2023-09-12T06:18:11.025Z,3.08
2023-09-12T06:20:39.237Z,3.40
2023-09-12T06:23:06.776Z,3.25
2023-09-12T06:25:36.649Z,3.03
2023-09-12T06:28:04.582Z,3.07
2023-09-12T06:30:32.098Z,3.77
2023-09-12T06:33:02.524Z,3.40
2023-09-12T06:35:30.481Z,3.63
2023-09-12T06:37:58.189Z,2.93
2023-09-12T06:40:26.019Z,3.50
2023-09-12T06:42:53.374Z,3.20
2023-09-12T06:45:20.824Z,3.17
2023-09-12T06:47:48.744Z,3.50
2023-09-12T06:50:16.605Z,3.00
2023-09-12T06:52:44.500Z,3.30
2023-09-12T06:55:12.488Z,3.30
2023-09-12T06:57:40.682Z,3.30
2023-09-12T07:00:08.957Z,3.30
2023-09-12T07:02:36.803Z,3.45
2023-09-12T07:05:05.151Z,3.40
2023-09-12T07:07:32.704Z,3.33
2023-09-12T07:10:16.155Z,3.07
2023-09-12T07:12:44.101Z,3.33
2023-09-12T07:15:11.936Z,2.78
2023-09-12T07:17:39.420Z,2.72
2023-09-12T07:20:12.737Z,2.80
2023-09-12T07:22:43.726Z,3.17
2023-09-12T07:25:13.226Z,2.85
2023-09-12T07:27:41.219Z,3.12
2023-09-12T07:30:09.414Z,2.90
2023-09-12T07:32:37.138Z,2.63
2023-09-12T07:35:05.537Z,2.90
2023-09-12T07:37:33.509Z,3.15
2023-09-12T07:40:01.238Z,3.30
2023-09-12T07:42:29.591Z,3.00
2023-09-12T07:44:57.014Z,3.10
2023-09-12T07:47:24.424Z,3.08
2023-09-12T07:49:55.230Z,2.90
2023-09-12T07:52:23.946Z,2.70
2023-09-12T07:54:54.041Z,3.40
2023-09-12T07:57:21.582Z,2.60
2023-09-12T07:59:48.932Z,2.40
2023-09-12T08:02:16.840Z,2.42
2023-09-12T08:04:44.770Z,2.80
2023-09-12T08:07:12.502Z,2.28
2023-09-12T08:09:54.352Z,1.70
2023-09-12T08:12:23.984Z,3.45
2023-09-12T08:14:51.361Z,2.20
2023-09-12T08:17:19.012Z,2.00
2023-09-12T08:19:46.926Z,2.42
2023-09-12T08:22:14.779Z,2.22
2023-09-12T08:24:42.449Z,2.20
2023-09-12T08:27:11.309Z,2.08
2023-09-12T08:32:07.174Z,2.97
2023-09-12T08:34:35.080Z,2.80
2023-09-12T08:37:02.645Z,2.28
2023-09-12T08:39:43.321Z,2.83
2023-09-12T08:42:16.168Z,2.58
2023-09-12T08:44:44.677Z,2.97
2023-09-12T08:47:13.618Z,2.95
2023-09-12T08:49:43.836Z,2.65
2023-09-12T08:52:11.729Z,3.15
2023-09-12T08:54:39.167Z,3.03
2023-09-12T08:57:08.447Z,3.83
2023-09-12T08:59:38.537Z,2.87
2023-09-12T09:02:10.236Z,2.62
2023-09-12T09:04:40.676Z,2.45
2023-09-12T09:07:10.340Z,3.03
2023-09-12T09:09:38.140Z,3.05
2023-09-12T09:12:09.992Z,2.78
2023-09-12T09:14:37.995Z,2.90
2023-09-12T09:17:05.569Z,2.63
2023-09-12T09:19:51.126Z,3.05
2023-09-12T09:22:18.989Z,2.92
2023-09-12T09:24:46.492Z,1.98
2023-09-12T09:27:34.194Z,2.80
2023-09-12T09:30:02.068Z,3.12
2023-09-12T09:32:29.511Z,2.80
2023-09-12T09:34:56.893Z,2.80
2023-09-12T09:37:24.731Z,2.60
2023-09-12T09:39:53.739Z,2.92
2023-09-12T09:42:21.434Z,2.62
2023-09-12T09:44:50.206Z,4.10
2023-09-12T09:47:20.248Z,2.80
2023-09-12T09:49:48.786Z,2.97
2023-09-12T09:52:16.494Z,3.22
2023-09-12T09:54:47.099Z,2.97
2023-09-12T09:57:14.466Z,2.90
2023-09-12T09:59:42.463Z,3.15
2023-09-12T10:02:20.669Z,2.92
2023-09-12T10:05:00.410Z,2.72
2023-09-12T10:07:29.978Z,2.78
2023-09-12T10:09:59.399Z,2.95
2023-09-12T10:12:29.986Z,3.08
2023-09-12T10:15:00.712Z,2.58
2023-09-12T10:17:37.049Z,2.42
2023-09-12T10:20:12.669Z,2.40
2023-09-12T10:23:38.372Z,3.17
2023-09-12T10:26:06.582Z,2.78
2023-09-12T10:28:34.355Z,2.72
2023-09-12T10:31:03.200Z,2.60
2023-09-12T10:33:32.830Z,2.33
2023-09-12T10:36:01.107Z,2.75
2023-09-12T10:38:31.366Z,2.95
2023-09-12T10:41:01.996Z,2.60
2023-09-12T10:43:31.263Z,2.40
2023-09-12T10:46:00.727Z,2.80
2023-09-12T10:48:28.173Z,2.53
2023-09-12T10:51:00.696Z,3.08
2023-09-12T10:53:31.312Z,2.62
2023-09-12T10:56:14.042Z,3.17
2023-09-12T10:59:07.746Z,2.55
2023-09-12T11:01:43.700Z,2.60
2023-09-12T11:04:20.680Z,3.08
2023-09-12T11:06:51.466Z,2.30
2023-09-12T11:09:23.462Z,2.45
2023-09-12T11:11:56.907Z,3.10
2023-09-12T11:14:25.613Z,2.42
2023-09-12T11:19:54.551Z,2.62
2023-09-12T11:22:30.546Z,3.53
2023-09-12T11:24:58.553Z,2.62
2023-09-12T11:27:32.408Z,2.90
2023-09-12T11:30:07.354Z,2.12
2023-09-12T11:32:38.242Z,2.20
2023-09-12T11:35:08.556Z,2.65
2023-09-12T11:37:39.090Z,2.70
2023-09-12T11:40:12.983Z,2.92
2023-09-12T11:42:44.905Z,2.72
2023-09-12T11:45:13.131Z,2.87
2023-09-12T11:47:44.767Z,2.50
2023-09-12T11:50:36.808Z,2.37
2023-09-12T11:53:07.068Z,2.62
2023-09-12T11:55:46.699Z,2.65
2023-09-12T11:58:19.660Z,2.33
2023-09-12T12:00:51.257Z,2.90
2023-09-12T12:03:23.789Z,2.80
2023-09-12T12:05:52.681Z,2.53
2023-09-12T12:10:52.306Z,2.62
2023-09-12T12:13:21.283Z,2.58
2023-09-12T12:15:49.112Z,2.83
2023-09-12T12:18:16.761Z,3.17
2023-09-12T12:20:44.600Z,2.75
2023-09-12T12:23:12.399Z,2.47
2023-09-12T12:25:39.799Z,2.80
2023-09-12T12:28:07.555Z,2.35
2023-09-12T12:30:36.890Z,2.22
2023-09-12T12:33:37.560Z,2.00
2023-09-12T12:36:04.032Z,2.28
2023-09-12T12:38:46.666Z,2.33
2023-09-12T12:41:41.860Z,2.75
2023-09-12T12:44:17.309Z,2.70
2023-09-12T12:49:24.389Z,2.50
2023-09-12T12:51:54.471Z,2.60
2023-09-12T12:54:24.518Z,3.05
2023-09-12T12:56:54.291Z,3.22
2023-09-12T12:59:21.676Z,2.55
2023-09-12T13:01:51.135Z,2.83
2023-09-12T13:04:20.530Z,2.67
2023-09-12T13:06:48.158Z,2.72
2023-09-12T13:09:18.231Z,2.70
2023-09-12T13:11:47.041Z,3.37
2023-09-12T13:14:15.659Z,2.40
2023-09-12T13:16:43.324Z,2.75
2023-09-12T13:19:12.622Z,3.33
2023-09-12T13:21:40.461Z,2.42
2023-09-12T13:24:08.177Z,3.08
2023-09-12T13:26:35.962Z,3.37
2023-09-12T13:29:03.997Z,2.95
2023-09-12T13:31:31.455Z,2.50
2023-09-12T13:33:59.414Z,2.78
2023-09-12T13:36:26.851Z,2.23
2023-09-12T13:38:54.199Z,2.97
2023-09-12T13:41:23.555Z,2.65
2023-09-12T13:43:50.919Z,2.53
2023-09-12T13:46:18.417Z,2.50
2023-09-12T13:51:16.272Z,3.10
2023-09-12T13:53:43.992Z,2.80
2023-09-12T13:58:42.976Z,3.20
2023-09-12T14:01:16.703Z,2.70
2023-09-12T14:03:55.125Z,3.00
2023-09-12T14:06:23.333Z,2.50
2023-09-12T14:08:50.938Z,2.67
2023-09-12T14:11:30.385Z,2.12
2023-09-12T14:14:11.132Z,2.80
2023-09-12T14:16:42.084Z,3.10
2023-09-12T14:19:11.873Z,3.12
2023-09-12T14:21:39.660Z,2.60
2023-09-12T14:24:08.171Z,3.17
2023-09-12T14:29:03.380Z,2.72
2023-09-12T14:31:31.407Z,2.60
2023-09-12T14:33:59.260Z,2.87
2023-09-12T14:36:26.627Z,2.87
2023-09-12T14:38:54.309Z,2.58
2023-09-12T14:41:21.692Z,3.22
2023-09-12T14:43:49.044Z,2.72
2023-09-12T14:46:16.880Z,2.85
2023-09-12T14:48:56.500Z,2.30
2023-09-12T14:51:33.760Z,2.40
2023-09-12T14:54:02.784Z,2.50
2023-09-12T14:56:31.695Z,2.95
2023-09-12T14:58:59.064Z,2.50
2023-09-12T15:01:26.604Z,3.03
2023-09-12T15:06:22.486Z,3.03
2023-09-12T15:08:53.202Z,2.70
2023-09-12T15:11:22.010Z,2.80
2023-09-12T15:13:50.051Z,2.75
2023-09-12T15:16:18.861Z,3.15
2023-09-12T15:18:47.751Z,3.10
2023-09-12T15:21:15.251Z,3.22
2023-09-12T15:23:42.960Z,2.60
2023-09-12T15:26:11.152Z,2.90
2023-09-12T15:31:06.586Z,2.70
2023-09-12T15:33:34.487Z,2.58
2023-09-12T15:36:02.249Z,3.17
2023-09-12T15:38:30.103Z,2.53
2023-09-12T15:40:59.676Z,2.45
2023-09-12T15:43:28.067Z,3.05
2023-09-12T15:45:55.812Z,3.55
2023-09-12T15:50:52.130Z,2.80
2023-09-12T15:53:19.535Z,2.90
2023-09-12T15:55:49.890Z,3.50
2023-09-12T15:58:17.439Z,3.03
2023-09-12T16:00:44.784Z,3.17
2023-09-12T16:03:12.815Z,2.83
2023-09-12T16:05:40.544Z,3.35
2023-09-12T16:08:09.080Z,2.97
2023-09-12T16:10:37.951Z,3.47
2023-09-12T16:13:05.789Z,3.15
2023-09-12T16:15:35.490Z,3.78
2023-09-12T16:18:03.586Z,2.90
2023-09-12T16:20:30.908Z,3.10
2023-09-12T16:22:58.323Z,3.65
2023-09-12T16:25:26.066Z,3.08
2023-09-12T16:27:54.036Z,3.15
2023-09-12T16:30:21.694Z,3.20
2023-09-12T16:32:49.486Z,2.53
2023-09-12T16:35:17.121Z,2.72
2023-09-12T16:37:44.498Z,2.30
2023-09-12T16:40:12.808Z,2.83
2023-09-12T16:42:40.600Z,4.47
2023-09-12T16:49:24.464Z,4.82
2023-09-12T16:52:10.825Z,5.60
2023-09-12T17:04:12.527Z,3.90
2023-09-12T17:08:03.970Z,3.92
2023-09-12T17:20:15.120Z,2.22
2023-09-12T17:22:43.163Z,3.42
2023-09-12T17:25:13.980Z,3.72
2023-09-12T17:27:41.918Z,3.67
2023-09-12T17:30:11.648Z,3.40
2023-09-12T17:32:39.118Z,3.62
2023-09-12T17:35:06.903Z,3.47
2023-09-12T17:37:35.209Z,3.65
2023-09-12T17:40:02.829Z,3.47
2023-09-12T17:42:32.102Z,3.62
2023-09-12T17:45:00.306Z,4.90
2023-09-12T17:47:28.379Z,3.97
2023-09-12T17:49:57.657Z,3.80
2023-09-12T17:52:25.487Z,3.95
2023-09-12T17:54:52.930Z,3.28
2023-09-12T17:57:20.418Z,3.37
2023-09-12T17:59:49.737Z,4.55
2023-09-12T18:02:17.182Z,3.90
2023-09-12T18:04:45.136Z,4.60
2023-09-12T18:07:12.773Z,3.25
2023-09-12T18:09:40.730Z,3.80
2023-09-12T18:12:08.574Z,3.83
2023-09-12T18:14:36.108Z,3.83
2023-09-12T18:17:03.917Z,4.07
2023-09-12T18:19:32.105Z,4.22
2023-09-12T18:22:01.256Z,3.87
2023-09-12T18:24:28.887Z,4.90
2023-09-12T18:26:59.838Z,5.10
2023-09-12T18:29:27.400Z,4.72
2023-09-12T18:31:55.737Z,6.00
2023-09-12T18:34:23.521Z,5.72
2023-09-12T18:36:51.130Z,5.90
2023-09-12T18:39:19.365Z,6.85
2023-09-12T18:41:48.028Z,10.68
2023-09-12T18:44:15.668Z,21.85
2023-09-12T18:46:43.333Z,29.33
2023-09-12T18:49:12.009Z,25.40
2023-09-12T18:51:39.756Z,20.58
2023-09-12T18:54:07.362Z,22.67
2023-09-12T18:56:35.124Z,16.62
2023-09-12T18:59:03.056Z,13.18
2023-09-12T19:01:30.797Z,9.75
2023-09-12T19:03:58.759Z,7.90
2023-09-12T19:06:26.278Z,5.10
2023-09-12T19:08:53.729Z,3.65
2023-09-12T19:11:23.464Z,4.57
2023-09-12T19:13:50.919Z,5.15
2023-09-12T19:16:18.556Z,4.78
2023-09-12T19:18:47.509Z,3.12
2023-09-12T19:21:14.936Z,3.53
2023-09-12T19:23:42.696Z,4.10
2023-09-12T19:26:10.681Z,4.70
2023-09-12T19:28:38.129Z,5.20
2023-09-12T19:31:05.709Z,5.00
2023-09-12T19:33:33.738Z,4.33
2023-09-12T19:36:01.291Z,4.67
2023-09-12T19:38:28.724Z,4.37
2023-09-12T19:41:00.978Z,3.70
2023-09-12T19:43:28.494Z,5.00
2023-09-12T19:45:57.587Z,3.93
2023-09-12T19:48:25.271Z,3.75
2023-09-12T19:50:52.839Z,3.70
2023-09-12T19:53:20.899Z,3.73
2023-09-12T19:55:59.463Z,3.80
2023-09-12T20:00:59.879Z,3.22
2023-09-12T20:03:28.597Z,3.40
2023-09-12T20:05:56.079Z,3.10
2023-09-12T20:08:24.254Z,3.43
2023-09-12T20:10:52.405Z,3.85
2023-09-12T20:13:19.987Z,3.70
2023-09-12T20:15:47.526Z,3.17
2023-09-12T20:18:15.399Z,3.80
2023-09-12T20:20:46.895Z,3.03
2023-09-12T20:23:14.842Z,3.30
2023-09-12T20:25:43.499Z,3.10
2023-09-12T20:28:13.103Z,3.35
2023-09-12T20:30:41.367Z,3.00
2023-09-12T20:33:08.906Z,3.37
2023-09-12T20:35:36.666Z,3.10
2023-09-12T20:38:06.169Z,2.95
2023-09-12T20:40:34.016Z,3.00
2023-09-12T20:43:01.646Z,3.70
2023-09-12T20:45:29.647Z,3.83
2023-09-12T20:47:57.110Z,3.50
2023-09-12T20:50:28.582Z,3.30
2023-09-12T20:53:06.303Z,3.87
2023-09-12T20:55:38.620Z,3.40
2023-09-12T20:58:06.740Z,3.67
2023-09-12T21:00:34.499Z,4.00
2023-09-12T21:03:02.120Z,3.47
2023-09-12T21:05:29.986Z,3.80
2023-09-12T21:07:58.250Z,3.50
2023-09-12T21:10:25.705Z,3.35
2023-09-12T21:12:53.485Z,4.07
2023-09-12T21:15:23.962Z,4.17
2023-09-12T21:17:52.013Z,3.53
2023-09-12T21:20:20.136Z,3.90
2023-09-12T21:22:47.690Z,3.27
2023-09-12T21:25:15.217Z,4.83
2023-09-12T21:27:43.033Z,4.07
2023-09-12T21:30:11.319Z,3.40
2023-09-12T21:32:38.718Z,4.65
2023-09-12T21:35:16.222Z,3.77
2023-09-12T21:37:44.865Z,3.53
2023-09-12T21:40:14.240Z,3.33
2023-09-12T21:42:42.109Z,3.58
2023-09-12T21:45:14.732Z,3.37
2023-09-12T21:47:44.143Z,3.93
2023-09-12T21:52:39.439Z,3.63
2023-09-12T21:55:08.601Z,3.50
2023-09-12T21:57:36.555Z,3.60
2023-09-12T22:00:24.681Z,3.53
2023-09-12T22:02:53.407Z,3.53
2023-09-12T22:05:21.216Z,3.90
2023-09-12T22:07:49.228Z,3.90
2023-09-12T22:10:17.902Z,3.50
2023-09-12T22:12:46.179Z,3.47
2023-09-12T22:15:13.852Z,3.70
2023-09-12T22:17:41.438Z,3.67
2023-09-12T22:20:13.936Z,3.87
2023-09-12T22:22:43.988Z,3.70
2023-09-12T22:25:12.100Z,3.80
2023-09-12T22:27:40.684Z,3.35
2023-09-12T22:30:09.252Z,3.83
2023-09-12T22:32:38.416Z,4.90
2023-09-12T22:35:06.083Z,3.23
2023-09-12T22:37:33.641Z,3.37
2023-09-12T22:40:01.064Z,4.13
2023-09-12T22:42:28.807Z,3.27
2023-09-12T22:44:56.393Z,3.67
2023-09-12T22:47:23.753Z,3.37
2023-09-12T22:49:52.582Z,3.40
2023-09-12T22:52:20.690Z,3.17
2023-09-12T22:54:48.108Z,3.43
2023-09-12T22:57:15.497Z,3.17
2023-09-12T22:59:43.215Z,3.23
2023-09-12T23:02:10.591Z,3.83
2023-09-12T23:04:38.036Z,3.40
2023-09-12T23:07:05.838Z,4.27
2023-09-12T23:09:33.414Z,4.20
2023-09-12T23:12:00.795Z,3.40
2023-09-12T23:14:28.567Z,3.90
2023-09-12T23:16:56.007Z,3.83
2023-09-12T23:19:23.580Z,3.60
2023-09-12T23:21:51.452Z,3.30
2023-09-12T23:24:18.873Z,4.03
2023-09-12T23:26:46.332Z,3.87
2023-09-12T23:29:14.039Z,3.50
2023-09-12T23:31:41.479Z,3.80
2023-09-12T23:34:08.917Z,4.20
2023-09-12T23:36:36.778Z,3.13
2023-09-12T23:39:05.798Z,3.70
2023-09-12T23:41:33.209Z,3.75
2023-09-12T23:44:00.810Z,3.53
2023-09-12T23:46:28.614Z,2.83
2023-09-12T23:48:55.971Z,3.53
2023-09-12T23:51:23.720Z,3.23
2023-09-12T23:53:50.963Z,3.23
2023-09-12T23:56:18.268Z,4.03
2023-09-12T23:58:45.984Z,3.23
